Bessie, Oklahoma
Current Conditions -  °F | °C
As of 3:35 AM on Sunday 26 Oct 2014 (Local Time) from KCLK Reporting Station
Scattered Clouds Scattered Clouds  
Wind Chill: 15°   Ceiling: Unl
Heat Index: 15°   Visibility: 10mi
Dew Point: 10°   Wind: 7mph
Humidity: 72%   Direction: 160°SSE
Pressure: 29.95"   Gusts: NA
Location:  35.39°N, 98.99°W
Report Text: KCLK 260835Z AUTO 16006KT 10SM SCT100 15/10 A2995 RMK AO2
Loading
Personal Weather Stations






























Interactive Weather Map
Tropical Storm Tracking
New forecast layout! Learn more

10-Day Weather Forecast

Advertisements
Track Severe Weather on mobile